createdAt,value
2023-11-15T08:23:36.481Z,100508.66
2023-11-15T08:26:04.896Z,100532.41
2023-11-15T08:28:32.890Z,100534.84
2023-11-15T08:31:00.950Z,100538.06
2023-11-15T08:33:29.290Z,100537.50
2023-11-15T08:35:57.767Z,100540.84
2023-11-15T08:38:26.152Z,100547.47
2023-11-15T08:40:56.957Z,100554.38
2023-11-15T08:43:25.011Z,100551.19
2023-11-15T08:45:53.068Z,100570.66
2023-11-15T08:48:21.580Z,100578.88
2023-11-15T08:50:49.751Z,100578.06
2023-11-15T08:53:19.944Z,100581.69
2023-11-15T08:55:50.334Z,100578.56
2023-11-15T08:58:22.817Z,100580.59
2023-11-15T09:00:51.553Z,100598.72
2023-11-15T09:03:19.643Z,100592.25
2023-11-15T09:05:49.211Z,100594.81
2023-11-15T09:08:17.374Z,100597.31
2023-11-15T09:10:45.333Z,100601.28
2023-11-15T09:13:16.517Z,100611.63
2023-11-15T09:15:47.648Z,100617.19
2023-11-15T09:18:16.252Z,100616.41
2023-11-15T09:20:44.878Z,100620.38
2023-11-15T09:23:22.372Z,100621.53
2023-11-15T09:26:00.106Z,100634.84
2023-11-15T09:28:28.541Z,100631.47
2023-11-15T09:30:58.009Z,100634.06
2023-11-15T09:33:30.893Z,100641.88
2023-11-15T09:36:01.550Z,100641.63
2023-11-15T09:38:30.225Z,100647.88
2023-11-15T09:41:01.056Z,100656.19
2023-11-15T09:43:29.980Z,100648.38
2023-11-15T09:46:00.636Z,100660.97
2023-11-15T09:48:29.206Z,100669.56
2023-11-15T09:50:59.210Z,100665.03
2023-11-15T09:53:30.304Z,100678.72
2023-11-15T09:56:00.446Z,100683.81
2023-11-15T09:58:28.330Z,100668.19
2023-11-15T10:00:56.420Z,100674.56
2023-11-15T10:03:25.847Z,100670.06
2023-11-15T10:06:00.853Z,100670.91
2023-11-15T10:08:30.081Z,100673.19
2023-11-15T10:11:10.289Z,100682.13
2023-11-15T10:13:39.076Z,100689.84
2023-11-15T10:16:23.301Z,100680.03
2023-11-15T10:18:53.265Z,100687.94
2023-11-15T10:21:21.771Z,100690.03
2023-11-15T10:23:50.205Z,100688.50
2023-11-15T10:26:18.766Z,100687.56
2023-11-15T10:28:47.324Z,100694.56
2023-11-15T10:31:19.603Z,100703.63
2023-11-15T10:33:54.982Z,100697.50
2023-11-15T10:36:24.682Z,100698.22
2023-11-15T10:38:56.617Z,100703.72
2023-11-15T10:41:26.728Z,100707.41
2023-11-15T10:43:56.281Z,100707.72
2023-11-15T10:46:28.131Z,100718.28
2023-11-15T10:48:58.921Z,100726.09
2023-11-15T10:51:33.336Z,100723.78
2023-11-15T10:54:02.361Z,100727.91
2023-11-15T10:56:32.900Z,100731.13
2023-11-15T10:59:05.475Z,100744.09
2023-11-15T11:01:35.442Z,100741.34
2023-11-15T11:04:08.824Z,100749.16
2023-11-15T11:06:42.873Z,100750.47
2023-11-15T11:09:19.840Z,100750.13
2023-11-15T11:11:54.989Z,100759.78
2023-11-15T11:14:27.806Z,100765.31
2023-11-15T11:16:57.822Z,100770.28
2023-11-15T11:19:28.038Z,100776.31
2023-11-15T11:22:07.257Z,100766.41
2023-11-15T11:24:39.685Z,100775.75
2023-11-15T11:27:37.763Z,100778.78
2023-11-15T11:30:21.282Z,100778.25
2023-11-15T11:32:51.643Z,100778.22
2023-11-15T11:35:35.842Z,100781.72
2023-11-15T11:38:05.496Z,100792.75
2023-11-15T11:40:40.075Z,100788.81
2023-11-15T11:43:17.100Z,100788.50
2023-11-15T11:45:46.590Z,100793.59
2023-11-15T11:48:25.243Z,100798.97
2023-11-15T11:51:00.631Z,100800.03
2023-11-15T11:53:29.356Z,100793.19
2023-11-15T11:55:58.521Z,100795.06
2023-11-15T11:58:29.132Z,100800.41
2023-11-15T12:01:02.474Z,100801.84
2023-11-15T12:03:31.944Z,100802.38
2023-11-15T12:06:12.390Z,100802.03
2023-11-15T12:08:42.201Z,100799.81
2023-11-15T12:11:11.900Z,100816.84
2023-11-15T12:13:44.629Z,100803.75
2023-11-15T12:16:20.619Z,100815.78
2023-11-15T12:19:04.804Z,100804.91
2023-11-15T12:21:35.779Z,100808.69
2023-11-15T12:24:07.884Z,100811.25
2023-11-15T12:26:47.200Z,100804.84
2023-11-15T12:29:23.496Z,100816.38
2023-11-15T12:31:52.512Z,100821.59
2023-11-15T12:34:22.238Z,100813.31
2023-11-15T12:36:52.561Z,100833.06
2023-11-15T12:39:22.899Z,100825.88
2023-11-15T12:41:53.807Z,100831.13
2023-11-15T12:44:22.648Z,100823.47
2023-11-15T12:46:55.374Z,100829.00
2023-11-15T12:49:26.510Z,100831.41
2023-11-15T12:51:55.905Z,100821.78
2023-11-15T12:54:24.117Z,100829.72
2023-11-15T12:57:06.053Z,100841.47
2023-11-15T12:59:37.466Z,100833.28
2023-11-15T13:02:06.289Z,100843.78
2023-11-15T13:04:53.135Z,100835.28
2023-11-15T13:07:22.863Z,100835.22
2023-11-15T13:09:50.846Z,100838.84
2023-11-15T13:12:26.982Z,100847.44
2023-11-15T13:14:55.782Z,100846.41
2023-11-15T13:17:24.609Z,100852.84
2023-11-15T13:19:52.652Z,100851.22
2023-11-15T13:22:22.026Z,100851.81
2023-11-15T13:24:51.150Z,100859.34
2023-11-15T13:27:21.606Z,100868.22
2023-11-15T13:29:50.492Z,100865.09
2023-11-15T13:32:18.501Z,100860.75
2023-11-15T13:34:48.070Z,100868.81
2023-11-15T13:37:16.542Z,100876.94
2023-11-15T13:39:45.940Z,100872.34
2023-11-15T13:42:13.874Z,100870.25
2023-11-15T13:44:41.814Z,100873.91
2023-11-15T13:47:09.919Z,100874.03
2023-11-15T13:49:39.231Z,100877.09
2023-11-15T13:52:08.073Z,100874.25
2023-11-15T13:54:35.999Z,100877.97
2023-11-15T13:57:06.184Z,100872.75
2023-11-15T13:59:36.508Z,100880.91
2023-11-15T14:02:04.666Z,100870.84
2023-11-15T14:04:32.593Z,100880.75
2023-11-15T14:07:00.521Z,100886.66
2023-11-15T14:09:30.000Z,100887.38
2023-11-15T14:12:00.078Z,100886.66
2023-11-15T14:14:29.952Z,100893.78
2023-11-15T14:17:00.503Z,100898.00
2023-11-15T14:19:28.741Z,100897.19
2023-11-15T14:21:57.049Z,100902.50
2023-11-15T14:24:25.038Z,100901.22
2023-11-15T14:26:53.063Z,100913.88
2023-11-15T14:29:22.151Z,100918.56
2023-11-15T14:31:51.710Z,100915.09
2023-11-15T14:34:21.070Z,100909.75
2023-11-15T14:36:50.077Z,100921.50
2023-11-15T14:39:22.784Z,100919.25
2023-11-15T14:41:50.918Z,100925.13
2023-11-15T14:44:18.840Z,100928.56
2023-11-15T14:46:47.017Z,100927.94
2023-11-15T14:49:16.753Z,100926.84
2023-11-15T14:51:49.650Z,100927.38
2023-11-15T14:54:22.037Z,100928.94
2023-11-15T14:56:50.494Z,100931.72
2023-11-15T14:59:19.050Z,100933.94
2023-11-15T15:01:47.518Z,100932.78
2023-11-15T15:04:17.208Z,100935.50
2023-11-15T15:06:46.621Z,100934.16
2023-11-15T15:09:15.939Z,100939.19
2023-11-15T15:11:47.020Z,100944.13
2023-11-15T15:14:16.893Z,100943.69
2023-11-15T15:16:44.981Z,100940.75
2023-11-15T15:19:12.935Z,100944.50
2023-11-15T15:21:45.965Z,100953.69
2023-11-15T15:24:13.960Z,100960.69
2023-11-15T15:26:42.105Z,100965.28
2023-11-15T15:29:18.478Z,100970.38
2023-11-15T15:31:50.360Z,100973.72
2023-11-15T15:34:18.325Z,100975.13
2023-11-15T15:36:47.657Z,100981.56
2023-11-15T15:39:16.807Z,100983.34
2023-11-15T15:41:44.823Z,100983.53
2023-11-15T15:44:12.765Z,100985.47
2023-11-15T15:46:40.678Z,100991.53
2023-11-15T15:49:08.842Z,100992.38
2023-11-15T15:51:36.841Z,101003.06
2023-11-15T15:54:07.244Z,101007.91
2023-11-15T15:56:35.257Z,101002.09
2023-11-15T15:59:03.574Z,101014.91
2023-11-15T16:01:31.522Z,101016.56
2023-11-15T16:04:00.822Z,101014.00
2023-11-15T16:06:28.864Z,101013.22
2023-11-15T16:08:57.047Z,101001.19
2023-11-15T16:11:26.631Z,101019.25
2023-11-15T16:13:55.046Z,101016.38
2023-11-15T16:16:23.081Z,101033.59
2023-11-15T16:18:51.957Z,101028.94
2023-11-15T16:21:20.007Z,101032.38
2023-11-15T16:23:48.041Z,101030.03
2023-11-15T16:26:17.883Z,101027.00
2023-11-15T16:28:47.302Z,101033.44
2023-11-15T16:31:16.640Z,101026.72
2023-11-15T16:33:45.178Z,101039.31
2023-11-15T16:36:13.314Z,101038.91
2023-11-15T16:38:44.986Z,101047.53
2023-11-15T16:41:16.627Z,101054.84
2023-11-15T16:43:44.629Z,101058.31
2023-11-15T16:46:14.036Z,101057.34
2023-11-15T16:48:44.928Z,101064.91
2023-11-15T16:51:13.667Z,101056.84
2023-11-15T16:53:42.133Z,101054.03
2023-11-15T16:56:11.461Z,101056.88
2023-11-15T16:58:39.498Z,101068.19
2023-11-15T17:01:09.074Z,101066.13
2023-11-15T17:03:38.613Z,101064.31
2023-11-15T17:06:07.384Z,101073.69
2023-11-15T17:08:36.048Z,101069.59
2023-11-15T17:11:04.056Z,101082.00
2023-11-15T17:13:32.041Z,101086.66
2023-11-15T17:15:59.931Z,101082.50
2023-11-15T17:18:27.894Z,101091.72
2023-11-15T17:20:59.742Z,101087.34
2023-11-15T17:23:27.952Z,101094.19
2023-11-15T17:25:56.209Z,101095.28
2023-11-15T17:28:24.657Z,101098.47
2023-11-15T17:30:52.543Z,101100.66
2023-11-15T17:33:20.608Z,101095.66
2023-11-15T17:35:49.198Z,101094.28
2023-11-15T17:38:18.868Z,101102.22
2023-11-15T17:40:47.690Z,101102.84
2023-11-15T17:43:14.894Z,101106.41
2023-11-15T17:45:43.048Z,101101.38
2023-11-15T17:48:11.603Z,101103.22
2023-11-15T17:50:39.985Z,101103.94
2023-11-15T17:53:08.316Z,101100.44
2023-11-15T17:55:37.712Z,101104.69
2023-11-15T17:58:08.046Z,101111.00
2023-11-15T18:00:36.618Z,101103.69
2023-11-15T18:03:04.666Z,101108.09
2023-11-15T18:05:32.900Z,101109.53
2023-11-15T18:08:00.891Z,101114.13
2023-11-15T18:10:29.924Z,101109.03
2023-11-15T18:12:59.759Z,101109.84
2023-11-15T18:15:28.314Z,101119.03
2023-11-15T18:17:56.321Z,101114.88
2023-11-15T18:20:25.014Z,101107.09
2023-11-15T18:22:55.295Z,101118.94
2023-11-15T18:25:23.618Z,101112.31
2023-11-15T18:27:51.551Z,101103.22
2023-11-15T18:30:20.924Z,101101.72
2023-11-15T18:32:49.413Z,101106.75
2023-11-15T18:35:18.077Z,101100.53
2023-11-15T18:37:46.019Z,101102.13
2023-11-15T18:40:17.966Z,101106.41
2023-11-15T18:42:46.147Z,101104.69
2023-11-15T18:45:14.243Z,101105.56
2023-11-15T18:47:45.253Z,101107.59
2023-11-15T18:50:15.610Z,101112.59
2023-11-15T18:52:44.760Z,101117.50
2023-11-15T18:55:15.384Z,101109.84
2023-11-15T18:57:45.615Z,101112.25
2023-11-15T19:00:19.418Z,101116.88
2023-11-15T19:02:49.582Z,101115.88
2023-11-15T19:05:19.235Z,101112.25
2023-11-15T19:07:49.658Z,101111.66
2023-11-15T19:10:18.927Z,101112.75
2023-11-15T19:12:49.545Z,101111.38
2023-11-15T19:15:18.038Z,101115.31
2023-11-15T19:17:51.230Z,101122.84
2023-11-15T19:20:22.412Z,101120.16
2023-11-15T19:22:51.920Z,101109.66
2023-11-15T19:25:20.194Z,101124.91
2023-11-15T19:27:48.603Z,101130.53
2023-11-15T19:30:17.585Z,101117.59
2023-11-15T19:32:46.735Z,101117.59
2023-11-15T19:35:18.041Z,101117.13
2023-11-15T19:37:47.517Z,101122.72
2023-11-15T19:40:16.410Z,101122.50
2023-11-15T19:42:44.904Z,101115.19
2023-11-15T19:45:13.489Z,101124.19
2023-11-15T19:47:42.129Z,101117.84
2023-11-15T19:50:10.205Z,101123.56
2023-11-15T19:52:38.334Z,101121.03
2023-11-15T19:55:09.367Z,101121.88
2023-11-15T19:57:38.334Z,101139.56
2023-11-15T20:00:12.113Z,101129.19
2023-11-15T20:02:46.202Z,101133.19
2023-11-15T20:05:16.087Z,101135.47
2023-11-15T20:07:44.263Z,101127.88
2023-11-15T20:10:14.185Z,101125.66
2023-11-15T20:12:42.812Z,101125.31
2023-11-15T20:15:12.277Z,101123.91
2023-11-15T20:17:40.652Z,101142.00
2023-11-15T20:20:09.651Z,101131.28
2023-11-15T20:22:45.534Z,101127.38
2023-11-15T20:25:21.510Z,101136.19
2023-11-15T20:27:49.495Z,101132.78
2023-11-15T20:30:19.462Z,101134.09
2023-11-15T20:32:48.038Z,101133.63
2023-11-15T20:35:16.614Z,101132.06
2023-11-15T20:40:16.432Z,101118.53
2023-11-15T20:42:48.629Z,101117.09
2023-11-15T20:45:16.987Z,101128.41
2023-11-15T20:47:46.055Z,101115.09
2023-11-15T20:50:14.505Z,101122.69
2023-11-15T20:52:42.782Z,101126.59
2023-11-15T20:55:12.157Z,101132.22
2023-11-15T20:57:40.702Z,101130.03
2023-11-15T21:00:13.639Z,101128.78
2023-11-15T21:02:42.269Z,101123.47
2023-11-15T21:05:12.829Z,101121.16
2023-11-15T21:07:41.209Z,101123.03
2023-11-15T21:10:10.967Z,101116.94
2023-11-15T21:12:39.398Z,101123.66
2023-11-15T21:15:10.769Z,101112.97
2023-11-15T21:17:40.318Z,101125.16
2023-11-15T21:20:12.224Z,101126.09
2023-11-15T21:22:42.456Z,101115.19
2023-11-15T21:25:13.746Z,101118.91
2023-11-15T21:27:42.250Z,101110.28
2023-11-15T21:30:12.720Z,101108.09
2023-11-15T21:32:43.298Z,101119.09
2023-11-15T21:35:12.200Z,101115.44
2023-11-15T21:37:41.897Z,101113.16
2023-11-15T21:40:12.544Z,101117.78
2023-11-15T21:42:41.165Z,101118.81
2023-11-15T21:45:12.171Z,101123.25
2023-11-15T21:47:40.590Z,101118.06
2023-11-15T21:50:11.336Z,101122.72
2023-11-15T21:52:38.382Z,101114.22
2023-11-15T21:55:07.112Z,101114.78
2023-11-15T21:57:35.544Z,101106.47
2023-11-15T22:00:05.057Z,101118.06
2023-11-15T22:02:33.026Z,101111.72
2023-11-15T22:05:01.043Z,101101.47
2023-11-15T22:07:30.889Z,101108.88
2023-11-15T22:09:58.968Z,101110.03
2023-11-15T22:12:27.378Z,101112.13
2023-11-15T22:14:55.627Z,101114.41
2023-11-15T22:17:23.598Z,101107.34
2023-11-15T22:19:52.232Z,101102.25
2023-11-15T22:22:20.140Z,101093.81
2023-11-15T22:24:49.337Z,101092.88
2023-11-15T22:27:17.304Z,101093.81
2023-11-15T22:29:45.222Z,101101.00
2023-11-15T22:32:13.242Z,101108.03
2023-11-15T22:34:41.184Z,101101.25
2023-11-15T22:37:10.065Z,101102.22
2023-11-15T22:39:39.027Z,101094.06
2023-11-15T22:42:09.065Z,101095.34
2023-11-15T22:44:38.074Z,101092.50
2023-11-15T22:47:07.012Z,101093.94
2023-11-15T22:49:34.948Z,101091.16
2023-11-15T22:52:02.962Z,101090.75
2023-11-15T22:54:30.983Z,101079.31
2023-11-15T22:56:58.985Z,101076.75
2023-11-15T22:59:28.815Z,101081.63
2023-11-15T23:01:56.752Z,101087.84
2023-11-15T23:04:24.870Z,101084.28
2023-11-15T23:06:55.247Z,101085.50
2023-11-15T23:09:23.394Z,101076.88
2023-11-15T23:11:51.680Z,101073.19
2023-11-15T23:14:19.696Z,101077.59
2023-11-15T23:16:49.412Z,101074.31
2023-11-15T23:19:17.576Z,101074.31
2023-11-15T23:21:54.777Z,101064.47
2023-11-15T23:24:27.696Z,101063.75
2023-11-15T23:26:58.867Z,101062.50
2023-11-15T23:29:28.519Z,101059.78
2023-11-15T23:31:58.232Z,101057.28
2023-11-15T23:34:26.429Z,101065.41
2023-11-15T23:36:55.210Z,101062.22
2023-11-15T23:39:25.279Z,101069.81
2023-11-15T23:41:53.234Z,101063.09
2023-11-15T23:44:21.207Z,101062.38
2023-11-15T23:46:52.197Z,101061.66
2023-11-15T23:49:22.438Z,101052.78
2023-11-15T23:51:51.049Z,101050.31
2023-11-15T23:54:19.216Z,101060.69
2023-11-15T23:56:47.223Z,101060.31
2023-11-15T23:59:15.124Z,101060.06
